Time;durP1;ratioP1;P1;durP2;ratioP2;P2;SDS_P1;SDS_P2;PMS_P1;PMS_P2;Temp;Humidity;BMP_temperature;BMP_pressure;BME280_temperature;BME280_humidity;BME280_pressure;Samples;Min_cycle;Max_cycle;Signal;HPM_P1;HPM_P2
2022/05/16 00:02:13;;;;;;;12.20;3.72;;;;;;;18.45;49.99;101129.47;4976549;28;20030;-81
2022/05/16 00:04:41;;;;;;;11.18;3.88;;;;;;;18.40;50.03;101134.91;4994296;28;20129;-83
2022/05/16 00:07:07;;;;;;;12.00;3.88;;;;;;;18.38;50.01;101142.59;4996075;28;20037;-82
2022/05/16 00:09:32;;;;;;;12.05;3.72;;;;;;;18.39;49.55;101142.31;4994389;28;20030;-87
2022/05/16 00:11:58;;;;;;;17.05;4.00;;;;;;;18.37;50.28;101139.03;4993744;28;20026;-85
2022/05/16 00:14:23;;;;;;;8.57;3.45;;;;;;;18.33;50.71;101139.84;4995126;28;20049;-83
2022/05/16 00:16:49;;;;;;;13.63;3.85;;;;;;;18.28;50.12;101139.81;4996246;28;20034;-82
2022/05/16 00:19:14;;;;;;;12.75;3.63;;;;;;;18.24;50.66;101134.06;4995626;28;20086;-86
2022/05/16 00:21:39;;;;;;;16.55;4.13;;;;;;;18.24;50.81;101115.72;4977773;28;20050;-86
2022/05/16 00:24:05;;;;;;;16.65;4.32;;;;;;;18.19;50.73;101118.44;4980787;28;20033;-80
2022/05/16 00:26:30;;;;;;;10.75;3.95;;;;;;;18.14;50.59;101115.69;4984096;28;20030;-82
2022/05/16 00:28:56;;;;;;;11.68;4.00;;;;;;;18.11;50.87;101124.44;4993656;28;20038;-82
2022/05/16 00:31:21;;;;;;;12.27;3.88;;;;;;;18.06;51.66;101122.50;4994357;28;20043;-83
2022/05/16 00:33:46;;;;;;;11.20;3.72;;;;;;;18.10;51.36;101120.06;4991634;28;20158;-81
2022/05/16 00:36:11;;;;;;;12.68;4.35;;;;;;;18.05;52.24;101114.56;5005727;28;20372;-85
2022/05/16 00:38:37;;;;;;;10.80;3.85;;;;;;;18.05;51.71;101115.38;4976559;28;20039;-83
2022/05/16 00:41:05;;;;;;;12.27;3.90;;;;;;;17.98;51.72;101113.97;4975552;28;20118;-82
2022/05/16 00:43:47;;;;;;;11.07;4.05;;;;;;;18.02;51.50;101123.31;4976283;28;20046;-86
2022/05/16 00:46:15;;;;;;;11.13;3.95;;;;;;;17.96;51.15;101121.66;4975584;28;20041;-79
2022/05/16 00:48:40;;;;;;;14.85;4.22;;;;;;;17.88;52.27;101118.28;4974723;28;20658;-82
2022/05/16 00:51:09;;;;;;;10.45;3.80;;;;;;;17.83;51.96;101118.28;4982543;28;20118;-82
2022/05/16 00:53:34;;;;;;;12.00;4.03;;;;;;;17.76;52.50;101109.47;4998964;28;20037;-81
2022/05/16 00:56:00;;;;;;;15.68;4.15;;;;;;;17.71;53.26;101115.75;4993554;28;20382;-82
2022/05/16 00:58:26;;;;;;;14.02;4.50;;;;;;;17.83;52.50;101107.34;4994995;28;20038;-85
2022/05/16 01:00:52;;;;;;;17.58;3.85;;;;;;;17.80;52.79;101107.03;4992003;28;20056;-84
2022/05/16 01:06:07;;;;;;;8.93;3.83;;;;;;;17.78;52.41;101099.09;4993792;28;20037;-86
2022/05/16 01:08:39;;;;;;;15.63;4.40;;;;;;;17.74;53.62;101100.72;4994590;28;20069;-83
2022/05/16 01:11:09;;;;;;;11.50;3.97;;;;;;;17.73;52.56;101096.34;4994277;28;20077;-84
2022/05/16 01:13:35;;;;;;;12.20;4.13;;;;;;;17.61;53.21;101095.75;4994499;28;20105;-83
2022/05/16 01:16:02;;;;;;;12.45;4.13;;;;;;;17.65;52.63;101102.34;4994258;28;20116;-82
2022/05/16 01:18:28;;;;;;;12.88;4.15;;;;;;;17.62;53.68;101097.38;4992744;28;20050;-84
2022/05/16 01:21:11;;;;;;;12.45;4.07;;;;;;;17.70;52.53;101103.16;4987405;28;20097;-83
2022/05/16 01:23:48;;;;;;;13.85;4.68;;;;;;;17.63;53.19;101112.69;4974925;28;20101;-85
2022/05/16 01:26:20;;;;;;;13.00;3.90;;;;;;;17.62;53.42;101114.63;4974825;28;20086;-80
2022/05/16 01:28:46;;;;;;;12.10;4.35;;;;;;;17.54;53.46;101110.47;4974569;28;20046;-82
2022/05/16 01:31:11;;;;;;;11.18;4.38;;;;;;;17.54;54.26;101113.22;4973328;28;20031;-84
2022/05/16 01:33:37;;;;;;;11.90;4.30;;;;;;;17.49;53.84;101102.22;4973844;28;20077;-81
2022/05/16 01:36:02;;;;;;;13.23;4.10;;;;;;;17.39;54.27;101102.16;4983767;28;20466;-80
2022/05/16 01:38:30;;;;;;;11.52;4.45;;;;;;;17.42;54.60;101089.88;4994224;28;20041;-82
2022/05/16 01:40:58;;;;;;;15.15;4.50;;;;;;;17.35;55.09;101103.81;4992618;28;20145;-83
2022/05/16 01:43:29;;;;;;;11.07;4.13;;;;;;;17.35;55.23;101095.59;4992909;28;20030;-84
2022/05/16 01:45:55;;;;;;;;;;;;;;;17.52;52.94;101096.22;4994178;28;20030;-82
2022/05/16 01:48:21;;;;;;;17.45;4.97;;;;;;;17.33;54.59;101095.03;4990803;28;19924;-84
2022/05/16 01:50:48;;;;;;;14.18;4.40;;;;;;;17.28;55.09;101084.06;4994009;28;20042;-83
2022/05/16 01:53:14;;;;;;;15.10;4.50;;;;;;;17.24;54.98;101091.16;4994037;28;20041;-85
2022/05/16 01:55:39;;;;;;;12.00;4.45;;;;;;;17.24;55.15;101089.25;4992594;28;20037;-81
2022/05/16 01:58:07;;;;;;;11.30;4.78;;;;;;;17.23;55.78;101081.31;4993479;28;20113;-86
2022/05/16 02:00:32;;;;;;;12.90;4.20;;;;;;;17.26;55.44;101075.31;4991568;28;20041;-84
2022/05/16 02:03:02;;;;;;;12.80;4.07;;;;;;;17.21;55.59;101070.63;4979532;28;20390;-82
2022/05/16 02:05:27;;;;;;;10.00;4.22;;;;;;;17.23;55.30;101082.13;4973065;28;20034;-86
2022/05/16 02:07:53;;;;;;;11.02;4.13;;;;;;;17.25;55.61;101079.13;4973759;28;20027;-81
2022/05/16 02:10:22;;;;;;;12.07;4.55;;;;;;;17.27;55.04;101066.00;4974395;28;20034;-82
2022/05/16 02:12:49;;;;;;;11.80;4.22;;;;;;;17.31;55.22;101070.66;4974308;28;20035;-85
2022/05/16 02:15:18;;;;;;;10.63;4.53;;;;;;;17.18;55.97;101071.97;4972958;28;20027;-82
2022/05/16 02:17:43;;;;;;;13.68;4.65;;;;;;;17.12;56.25;101051.16;4972622;28;20042;-84
2022/05/16 02:20:09;;;;;;;13.32;4.38;;;;;;;17.17;55.70;101053.09;4990900;28;20031;-84
2022/05/16 02:25:18;;;;;;;12.40;4.85;;;;;;;17.20;55.92;101054.50;4990287;28;20045;-77
2022/05/16 02:27:45;;;;;;;13.30;4.68;;;;;;;17.22;55.92;101060.50;4983116;28;20482;-82
2022/05/16 02:30:13;;;;;;;10.32;4.13;;;;;;;17.17;56.23;101051.19;4992566;28;20030;-76
2022/05/16 02:32:39;;;;;;;10.75;4.05;;;;;;;17.16;56.36;101055.00;4974774;28;20035;-79
2022/05/16 02:35:04;;;;;;;15.25;3.88;;;;;;;17.22;56.59;101049.56;4992386;28;20034;-76
2022/05/16 02:37:30;;;;;;;11.65;4.22;;;;;;;17.24;56.36;101045.50;4976983;28;20526;-82
2022/05/16 02:39:55;;;;;;;10.80;3.72;;;;;;;17.12;56.22;101042.13;4972207;28;20031;-82
2022/05/16 02:42:20;;;;;;;10.63;4.43;;;;;;;17.16;57.28;101044.06;4972651;28;20487;-78
2022/05/16 02:44:46;;;;;;;9.48;3.97;;;;;;;17.11;56.76;101033.09;4974268;28;20043;-83
2022/05/16 02:47:17;;;;;;;10.73;3.92;;;;;;;17.10;56.62;101036.09;4973734;28;20047;-80
2022/05/16 02:49:43;;;;;;;12.20;4.20;;;;;;;17.05;56.72;101036.09;4974519;28;20042;-80
2022/05/16 02:52:08;;;;;;;12.23;3.97;;;;;;;17.04;56.61;101029.75;4973563;28;20490;-82
2022/05/16 02:54:34;;;;;;;13.18;3.72;;;;;;;17.03;56.91;101033.59;4980955;28;20035;-80
2022/05/16 02:56:59;;;;;;;12.57;4.25;;;;;;;17.00;57.07;101028.66;4989270;28;20061;-81
2022/05/16 02:59:32;;;;;;;7.50;3.85;;;;;;;16.97;57.81;101030.00;4976338;28;20077;-83
2022/05/16 03:01:58;;;;;;;12.10;3.95;;;;;;;16.99;58.07;101016.06;4972806;28;20093;-81
2022/05/16 03:04:23;;;;;;;8.90;4.20;;;;;;;17.03;57.25;101011.75;4991190;28;20042;-81
2022/05/16 03:06:49;;;;;;;11.43;4.07;;;;;;;16.95;57.71;101014.94;4993049;28;20035;-84
2022/05/16 03:09:14;;;;;;;9.38;3.67;;;;;;;16.94;57.71;101019.59;4991388;28;20034;-83
2022/05/16 03:11:39;;;;;;;10.20;3.78;;;;;;;16.94;57.95;101013.28;4993738;28;20117;-83
2022/05/16 03:14:04;;;;;;;9.00;3.85;;;;;;;16.96;57.58;101014.69;4992135;28;20470;-85
2022/05/16 03:16:30;;;;;;;9.13;3.97;;;;;;;16.89;57.78;101016.00;4993871;28;20038;-81
2022/05/16 03:18:55;;;;;;;8.52;3.88;;;;;;;16.91;57.54;101019.28;4977102;28;20078;-82
2022/05/16 03:21:22;;;;;;;12.85;3.90;;;;;;;16.89;57.87;101021.47;4976362;28;20463;-83
2022/05/16 03:23:48;;;;;;;11.00;4.32;;;;;;;16.83;58.58;101009.66;4977702;28;20482;-84
2022/05/16 03:26:13;;;;;;;14.90;4.47;;;;;;;16.77;58.00;101021.63;4986041;28;20035;-81
2022/05/16 03:28:38;;;;;;;11.13;4.30;;;;;;;16.79;58.70;101014.81;4992258;28;20075;-82
2022/05/16 03:31:04;;;;;;;10.00;4.57;;;;;;;16.82;57.95;101019.75;4987456;28;20054;-84
2022/05/16 03:33:30;;;;;;;8.82;3.42;;;;;;;16.77;58.68;101027.94;4977557;28;20042;-79
2022/05/16 03:35:58;;;;;;;11.48;3.97;;;;;;;16.80;58.91;101023.84;4974572;28;20023;-84
2022/05/16 03:41:09;;;;;;;15.18;4.53;;;;;;;16.76;59.44;101015.34;4973024;28;20041;-83
2022/05/16 03:43:37;;;;;;;14.02;3.83;;;;;;;16.76;59.40;101022.75;4976282;28;20066;-81
2022/05/16 03:46:03;;;;;;;7.95;3.70;;;;;;;16.75;59.17;101021.91;4973341;28;20031;-79
2022/05/16 03:48:28;;;;;;;6.68;3.92;;;;;;;16.72;59.48;101016.13;4975506;28;20042;-81
2022/05/16 03:50:53;;;;;;;8.98;3.80;;;;;;;16.65;59.41;101022.66;4975208;28;20031;-80
2022/05/16 03:53:19;;;;;;;8.18;4.15;;;;;;;16.68;59.59;101021.28;4975495;28;20039;-82
2022/05/16 03:55:44;;;;;;;10.98;3.97;;;;;;;16.69;58.91;101016.66;4976424;28;20034;-82
2022/05/16 03:58:09;;;;;;;17.17;4.57;;;;;;;16.65;59.53;101009.00;4975638;28;20038;-84
2022/05/16 04:00:34;;;;;;;16.30;4.05;;;;;;;16.69;59.90;101016.66;4981521;28;20066;-83
2022/05/16 04:03:00;;;;;;;11.27;4.07;;;;;;;16.60;60.40;101019.06;4976693;28;20045;-78
2022/05/16 04:05:25;;;;;;;10.93;4.47;;;;;;;16.64;59.80;101009.25;4977914;28;20045;-84
2022/05/16 04:07:51;;;;;;;8.77;3.75;;;;;;;16.66;60.41;101012.53;4976222;28;20042;-81
2022/05/16 04:10:17;;;;;;;8.90;4.03;;;;;;;16.64;60.25;101010.06;4976306;28;20031;-84
2022/05/16 04:12:42;;;;;;;9.50;3.78;;;;;;;16.69;60.38;101028.41;4976590;28;20062;-81
2022/05/16 04:15:09;;;;;;;9.63;3.90;;;;;;;16.71;60.44;101020.75;4974775;28;20035;-79
2022/05/16 04:17:35;;;;;;;13.25;3.97;;;;;;;16.68;59.98;101023.22;4976020;28;20378;-83
2022/05/16 04:20:01;;;;;;;8.63;4.32;;;;;;;16.65;60.48;101028.13;4974108;28;20039;-80
2022/05/16 04:22:26;;;;;;;19.00;3.95;;;;;;;16.62;60.97;101030.53;4976099;28;20485;-83
2022/05/16 04:24:52;;;;;;;8.93;3.85;;;;;;;16.66;61.32;101028.94;4974730;28;20038;-81
2022/05/16 04:27:17;;;;;;;13.35;4.35;;;;;;;16.61;61.18;101027.00;4975570;28;20039;-85
2022/05/16 04:29:42;;;;;;;15.25;4.45;;;;;;;16.66;60.71;101028.94;4976024;28;20035;-82
2022/05/16 04:32:09;;;;;;;14.85;4.30;;;;;;;16.62;60.79;101022.34;4974422;28;20360;-82
2022/05/16 04:34:34;;;;;;;9.68;3.83;;;;;;;16.68;60.77;101026.75;4979174;28;20030;-80
2022/05/16 04:36:59;;;;;;;8.60;4.20;;;;;;;16.71;61.37;101028.16;4994551;28;20397;-84
2022/05/16 04:39:24;;;;;;;13.05;4.13;;;;;;;16.71;61.07;101025.41;4993915;28;20030;-82
2022/05/16 04:44:38;;;;;;;14.05;4.70;;;;;;;16.80;62.69;101024.69;4994948;28;20041;-82
2022/05/16 04:47:04;;;;;;;11.05;4.38;;;;;;;16.87;60.71;101026.38;4993433;28;20080;-81
2022/05/16 04:49:30;;;;;;;12.20;4.35;;;;;;;16.80;62.17;101019.22;4995060;28;20469;-84
2022/05/16 04:51:56;;;;;;;9.10;3.95;;;;;;;16.89;60.96;101027.75;4984453;28;20027;-81
2022/05/16 04:54:21;;;;;;;14.60;4.20;;;;;;;16.89;61.34;101026.94;4975172;28;20102;-80
2022/05/16 04:56:47;;;;;;;8.98;4.30;;;;;;;16.98;61.71;101026.19;4993049;28;20509;-82
2022/05/16 04:59:13;;;;;;;10.23;3.92;;;;;;;17.08;61.04;101032.81;4994670;28;20038;-83
2022/05/16 05:01:38;;;;;;;11.73;4.03;;;;;;;17.14;59.98;101046.25;4975239;28;20493;-83
2022/05/16 05:04:04;;;;;;;13.32;4.38;;;;;;;17.14;60.44;101032.56;4994605;28;20109;-81
2022/05/16 05:06:29;;;;;;;9.52;3.80;;;;;;;17.15;60.33;101030.66;4993093;28;20040;-83
2022/05/16 05:08:54;;;;;;;12.75;4.25;;;;;;;17.22;60.14;101024.97;4995108;28;20057;-79
2022/05/16 05:14:46;;;;;;;7.57;3.60;;;;;;;17.33;59.76;101043.06;4979683;28;20053;-80
2022/05/16 05:16:52;;;;;;;10.30;3.63;;;;;;;17.38;60.64;101042.25;4985031;28;20034;-81
2022/05/16 05:19:17;;;;;;;15.57;3.85;;;;;;;17.42;59.67;101038.75;4990860;28;20536;-82
2022/05/16 05:21:43;;;;;;;12.05;3.85;;;;;;;17.46;59.65;101036.28;4975957;28;20049;-84
2022/05/16 05:24:08;;;;;;;12.45;4.22;;;;;;;17.51;58.30;101044.50;4981035;28;20110;-82
2022/05/16 05:26:33;;;;;;;10.75;4.00;;;;;;;17.51;59.58;101039.88;4995487;28;20050;-82
2022/05/16 05:28:59;;;;;;;11.48;4.40;;;;;;;17.60;59.94;101037.44;4992246;28;20058;-81
2022/05/16 05:31:25;;;;;;;9.57;4.22;;;;;;;17.59;59.81;101034.97;4982271;28;20046;-80
2022/05/16 05:33:51;;;;;;;15.20;3.90;;;;;;;17.67;59.98;101026.25;4985726;28;20035;-80
2022/05/16 05:36:17;;;;;;;8.95;3.95;;;;;;;17.76;58.09;101038.31;4982709;28;20544;-79
2022/05/16 05:38:42;;;;;;;12.27;4.18;;;;;;;17.78;58.87;101035.31;4974720;28;20066;-82
2022/05/16 05:41:09;;;;;;;12.07;3.95;;;;;;;17.83;58.06;101052.59;4984807;28;20045;-83
2022/05/16 05:43:35;;;;;;;11.30;4.13;;;;;;;17.87;58.05;101048.22;4994169;28;20092;-82
2022/05/16 05:46:05;;;;;;;8.48;3.60;;;;;;;17.95;57.43;101054.28;4992443;28;20066;-84
2022/05/16 05:48:30;;;;;;;9.88;3.67;;;;;;;17.99;58.43;101052.66;4992775;28;20121;-84
2022/05/16 05:50:55;;;;;;;11.32;3.58;;;;;;;18.01;59.10;101064.16;4992968;28;20632;-79
2022/05/16 05:53:21;;;;;;;8.70;3.80;;;;;;;18.06;59.39;101055.97;4993584;28;20058;-81
2022/05/16 05:55:47;;;;;;;9.88;3.50;;;;;;;18.09;59.67;101065.53;4983821;28;20069;-83
2022/05/16 05:58:14;;;;;;;16.33;3.85;;;;;;;18.09;59.29;101077.34;4974161;28;20084;-83
2022/05/16 06:00:40;;;;;;;14.68;3.67;;;;;;;18.10;59.88;101061.72;4972233;28;20470;-84
2022/05/16 06:03:05;;;;;;;7.10;3.47;;;;;;;18.09;59.42;101062.78;4974257;28;20098;-81
2022/05/16 06:05:30;;;;;;;7.50;3.58;;;;;;;18.11;59.75;101058.69;4974280;28;20112;-81
2022/05/16 06:07:56;;;;;;;9.90;3.65;;;;;;;18.17;59.37;101056.81;4972281;28;20186;-83
2022/05/16 06:10:21;;;;;;;8.65;3.63;;;;;;;18.14;59.70;101063.63;4973255;28;20043;-84
2022/05/16 06:12:46;;;;;;;12.55;3.75;;;;;;;18.23;59.03;101070.22;4974767;28;20039;-80
2022/05/16 06:15:13;;;;;;;9.32;3.40;;;;;;;18.27;57.76;101075.16;4974197;28;20105;-81
2022/05/16 06:17:39;;;;;;;8.98;3.45;;;;;;;18.28;58.28;101068.59;4974039;28;20374;-82
2022/05/16 06:20:07;;;;;;;10.75;3.30;;;;;;;18.33;59.43;101085.06;4973763;28;20051;-82
2022/05/16 06:22:36;;;;;;;12.18;3.42;;;;;;;18.38;57.96;101079.56;4974455;28;20489;-81
2022/05/16 06:27:51;;;;;;;13.73;3.60;;;;;;;18.46;57.30;101087.25;4986157;28;20106;-83
2022/05/16 06:30:19;;;;;;;12.57;3.70;;;;;;;18.47;57.80;101082.59;4996205;28;20039;-83
2022/05/16 06:32:48;;;;;;;7.80;3.65;;;;;;;18.47;57.59;101088.91;4985065;28;20110;-80
2022/05/16 06:35:13;;;;;;;12.20;3.83;;;;;;;18.46;57.40;101087.25;4984809;28;20080;-80
2022/05/16 06:37:39;;;;;;;12.02;3.42;;;;;;;18.43;58.63;101087.78;4993963;28;20089;-79
2022/05/16 06:40:05;;;;;;;14.95;3.60;;;;;;;18.49;57.71;101097.66;4993460;28;20474;-80
2022/05/16 06:42:31;;;;;;;10.27;3.17;;;;;;;18.50;57.69;101099.31;4993279;28;20041;-82
2022/05/16 06:44:56;;;;;;;15.25;4.03;;;;;;;18.49;58.97;101097.66;4991725;28;20034;-79
2022/05/16 06:47:21;;;;;;;12.93;3.65;;;;;;;18.53;58.10;101103.44;4993204;28;20108;-81
2022/05/16 06:49:47;;;;;;;12.05;3.60;;;;;;;18.54;58.22;101094.94;4985260;28;20066;-78
2022/05/16 06:52:12;;;;;;;15.45;3.92;;;;;;;18.63;58.37;101102.59;4972557;28;20031;-82
2022/05/16 06:54:37;;;;;;;6.95;3.42;;;;;;;18.67;57.91;101095.50;4972257;28;20027;-83
2022/05/16 06:57:03;;;;;;;11.68;3.45;;;;;;;18.70;58.29;101103.97;4973438;28;20046;-83
2022/05/16 06:59:29;;;;;;;13.35;3.78;;;;;;;18.72;59.64;101101.81;4972021;28;20035;-79
2022/05/16 07:01:54;;;;;;;12.02;3.65;;;;;;;18.74;59.75;101104.28;4971441;28;20043;-83
2022/05/16 07:04:19;;;;;;;13.13;3.85;;;;;;;18.79;58.91;101109.75;4972448;28;20114;-79
2022/05/16 07:06:45;;;;;;;14.75;3.40;;;;;;;18.86;58.86;101107.59;4974815;28;20518;-77
2022/05/16 07:09:10;;;;;;;6.70;3.35;;;;;;;18.91;58.94;101104.84;4979393;28;20042;-80
2022/05/16 07:11:35;;;;;;;15.70;3.83;;;;;;;18.96;60.04;101109.50;4990710;28;20046;-80
2022/05/16 07:14:03;;;;;;;10.82;3.17;;;;;;;19.00;59.28;101110.59;4993213;28;20137;-81
2022/05/16 07:16:29;;;;;;;12.30;3.40;;;;;;;19.07;59.09;101110.34;4992790;28;20034;-80
2022/05/16 07:18:54;;;;;;;9.15;3.20;;;;;;;19.15;59.30;101120.72;4986977;28;20042;-80
2022/05/16 07:21:20;;;;;;;15.52;3.17;;;;;;;19.22;58.92;101114.94;4976013;28;20086;-81
2022/05/16 07:23:46;;;;;;;15.52;3.58;;;;;;;19.29;59.18;101116.34;4975901;28;20034;-82
2022/05/16 07:28:55;;;;;;;10.93;3.10;;;;;;;19.45;59.09;101119.03;4976663;28;20038;-81
2022/05/16 07:31:20;;;;;;;13.95;3.70;;;;;;;19.53;59.50;101125.88;4977124;28;20034;-81
2022/05/16 07:33:45;;;;;;;15.18;3.50;;;;;;;19.59;59.35;101122.84;4977430;28;20513;-81
2022/05/16 07:36:10;;;;;;;20.00;3.35;;;;;;;19.62;60.33;101111.28;4976848;28;20038;-80
2022/05/16 07:38:36;;;;;;;17.33;3.42;;;;;;;19.72;60.20;101113.19;4987332;28;20090;-81
2022/05/16 07:41:02;;;;;;;9.88;3.20;;;;;;;19.79;59.38;101118.41;4989030;28;20030;-79
2022/05/16 07:43:27;;;;;;;7.63;2.70;;;;;;;19.93;61.59;101124.09;4993235;28;20194;-81
2022/05/16 07:45:53;;;;;;;9.45;2.78;;;;;;;19.94;59.69;101121.09;4997020;28;20026;-79
2022/05/16 07:48:18;;;;;;;11.77;3.05;;;;;;;19.97;60.07;101131.53;4990671;28;20054;-81
2022/05/16 07:50:44;;;;;;;9.88;3.00;;;;;;;20.02;59.24;101133.44;4976567;28;20486;-83
2022/05/16 07:53:12;;;;;;;5.40;2.42;;;;;;;20.06;59.29;101128.19;4976202;28;20030;-83
2022/05/16 07:55:42;;;;;;;8.85;2.60;;;;;;;20.11;59.21;101141.88;4976309;28;20089;-80
2022/05/16 07:58:08;;;;;;;11.15;3.15;;;;;;;20.11;59.31;101141.88;4976654;28;20502;-80
2022/05/16 08:00:33;;;;;;;7.05;3.10;;;;;;;20.10;59.29;101140.25;4974152;28;20035;-80
2022/05/16 08:02:59;;;;;;;10.77;3.08;;;;;;;20.12;60.01;101138.03;4975056;28;20050;-79
2022/05/16 08:05:25;;;;;;;7.45;3.00;;;;;;;20.21;59.58;101136.34;4976051;28;20363;-79
2022/05/16 08:10:39;;;;;;;14.05;3.05;;;;;;;20.30;59.11;101137.38;4995933;28;20093;-77
2022/05/16 08:13:07;;;;;;;10.73;3.22;;;;;;;20.34;59.77;101143.97;4995565;28;20035;-78
2022/05/16 08:15:33;;;;;;;9.93;3.10;;;;;;;20.40;59.95;101143.94;4995455;28;20035;-77
2022/05/16 08:17:59;;;;;;;11.23;3.28;;;;;;;20.48;59.34;101137.84;4995476;28;20034;-79
2022/05/16 08:20:25;;;;;;;9.82;3.17;;;;;;;20.56;59.62;101139.97;4985156;28;20042;-75
2022/05/16 08:22:52;;;;;;;6.95;2.70;;;;;;;20.69;59.14;101146.81;4983962;28;20141;-75
2022/05/16 08:25:18;;;;;;;9.77;2.70;;;;;;;20.86;58.65;101147.22;5014310;28;20034;-75
2022/05/16 08:27:43;;;;;;;14.93;3.03;;;;;;;21.10;58.50;101159.41;5007091;28;20080;-76
2022/05/16 08:30:10;;;;;;;16.25;3.08;;;;;;;21.24;57.70;101163.13;4995301;28;20038;-75
2022/05/16 08:32:35;;;;;;;14.65;3.25;;;;;;;21.45;56.93;101158.22;4994212;28;20448;-76
2022/05/16 08:35:05;;;;;;;11.00;3.00;;;;;;;21.59;56.54;101145.47;4995202;28;20120;-76
2022/05/16 08:40:15;;;;;;;11.82;3.03;;;;;;;22.02;55.81;101149.38;4977494;28;20104;-82
2022/05/16 08:43:37;;;;;;;10.23;2.38;;;;;;;22.15;54.55;101158.84;4979662;28;20030;-79
2022/05/16 08:46:41;;;;;;;5.55;2.17;;;;;;;22.26;55.10;101149.34;4916806;29;20127;-82
2022/05/16 08:49:31;;;;;;;8.88;2.97;;;;;;;22.37;54.20;101150.84;4894488;29;20131;-83
2022/05/16 08:52:28;;;;;;;7.97;2.85;;;;;;;22.46;54.38;101148.25;4976695;28;20065;-80
2022/05/16 08:55:16;;;;;;;6.88;2.40;;;;;;;22.53;53.70;101147.88;4982553;28;20070;-81
2022/05/16 08:57:47;;;;;;;9.68;2.80;;;;;;;22.68;53.50;101150.41;4997694;28;20026;-79
2022/05/16 09:00:47;;;;;;;11.27;2.63;;;;;;;22.75;53.61;101147.25;4976800;28;20121;-81
2022/05/16 09:03:17;;;;;;;6.63;2.17;;;;;;;22.92;53.25;101149.50;4976372;28;20025;-82
2022/05/16 09:05:50;;;;;;;9.73;2.70;;;;;;;22.97;53.12;101152.16;4975327;28;20071;-79
2022/05/16 09:08:39;;;;;;;6.45;2.75;;;;;;;23.05;52.21;101143.16;4975383;28;20026;-80
2022/05/16 09:11:14;;;;;;;8.35;2.40;;;;;;;23.15;52.30;101145.78;4975690;28;20019;-79
2022/05/16 09:13:54;;;;;;;11.13;3.20;;;;;;;23.21;52.12;101151.22;4975634;28;20027;-79
2022/05/16 09:16:44;;;;;;;4.53;2.15;;;;;;;23.16;51.78;101149.38;4974138;28;20031;-80
2022/05/16 09:19:25;;;;;;;5.85;2.30;;;;;;;23.21;51.53;101148.47;4974991;28;20046;-81
2022/05/16 09:22:22;;;;;;;8.52;2.67;;;;;;;23.28;52.02;101155.22;4975660;28;20105;-79
2022/05/16 09:24:55;;;;;;;8.40;2.20;;;;;;;23.31;52.14;101149.09;4977681;28;20074;-82
2022/05/16 09:30:28;;;;;;;6.57;2.60;;;;;;;23.53;51.77;101147.59;4996744;28;20144;-80
2022/05/16 09:33:11;;;;;;;5.50;2.25;;;;;;;23.61;52.14;101148.81;4983084;28;20552;-80
2022/05/16 09:35:58;;;;;;;6.50;2.72;;;;;;;23.67;51.92;101158.63;4975661;28;20121;-80
2022/05/16 09:38:24;;;;;;;10.30;2.50;;;;;;;23.69;51.13;101150.88;4974483;28;20046;-81
2022/05/16 09:41:15;;;;;;;6.65;2.67;;;;;;;23.74;51.76;101161.00;4973678;28;20086;-80
2022/05/16 09:44:14;;;;;;;10.50;2.50;;;;;;;23.85;50.82;101166.06;4973309;28;20573;-79
2022/05/16 09:46:44;;;;;;;9.00;2.63;;;;;;;23.96;50.42;101163.91;4959052;28;20386;-81
2022/05/16 09:49:25;;;;;;;7.70;2.30;;;;;;;23.99;49.95;101174.34;4974323;28;20054;-81
2022/05/16 09:51:54;;;;;;;8.57;2.60;;;;;;;24.06;50.29;101188.56;4974604;28;20034;-81
2022/05/16 09:54:36;;;;;;;9.18;2.70;;;;;;;24.14;49.56;101183.44;4974943;28;20018;-80
2022/05/16 09:57:18;;;;;;;12.00;3.00;;;;;;;24.20;50.09;101187.72;4976484;28;20030;-79
2022/05/16 09:59:51;;;;;;;12.80;2.70;;;;;;;24.38;50.06;101194.25;4986585;28;20023;-80
2022/05/16 10:02:19;;;;;;;10.77;2.90;;;;;;;24.43;49.20;101202.44;4983889;28;20031;-81
2022/05/16 10:04:49;;;;;;;11.93;3.33;;;;;;;24.34;49.84;101210.66;4975057;28;20031;-80
2022/05/16 10:07:14;;;;;;;14.27;3.50;;;;;;;24.28;50.31;101200.00;4974342;28;20026;-80
2022/05/16 10:09:45;;;;;;;12.05;3.35;;;;;;;24.33;50.46;101209.00;4973956;28;20043;-80
2022/05/16 10:12:13;;;;;;;14.52;3.00;;;;;;;24.29;50.54;101221.00;4974223;28;20035;-81
2022/05/16 10:14:39;;;;;;;11.00;2.97;;;;;;;24.15;50.62;101213.53;4975000;28;20467;-79
2022/05/16 10:17:09;;;;;;;7.68;2.92;;;;;;;23.98;50.98;101227.16;4975026;28;20093;-80
2022/05/16 10:19:39;;;;;;;13.43;3.05;;;;;;;23.88;51.52;101231.78;4973923;28;20047;-81
2022/05/16 10:22:15;;;;;;;5.93;2.95;;;;;;;23.74;52.05;101233.66;4973771;28;20093;-81
2022/05/16 10:24:45;;;;;;;14.15;3.25;;;;;;;23.45;54.89;101245.78;4973875;28;20054;-81
2022/05/16 10:27:12;;;;;;;14.73;3.20;;;;;;;23.22;56.31;101266.03;4974421;28;20050;-80
2022/05/16 10:29:45;;;;;;;13.40;3.22;;;;;;;22.88;59.43;101281.69;4973305;28;20114;-79
2022/05/16 10:35:07;;;;;;;12.43;3.30;;;;;;;22.25;61.75;101282.75;4973708;28;20121;-81
2022/05/16 10:37:36;;;;;;;13.15;4.03;;;;;;;22.01;62.87;101291.00;4956417;28;20438;-81
2022/05/16 10:40:08;;;;;;;16.42;3.30;;;;;;;21.93;65.59;101292.47;4973933;28;20035;-81
2022/05/16 10:42:50;;;;;;;10.88;3.70;;;;;;;21.88;65.43;101287.03;4971856;28;20026;-80
2022/05/16 10:45:20;;;;;;;7.60;3.70;;;;;;;21.76;67.76;101295.69;4973628;28;20027;-80
2022/05/16 10:47:55;;;;;;;12.27;3.70;;;;;;;21.82;68.10;101305.53;4972347;28;20458;-80
2022/05/16 10:50:26;;;;;;;13.38;3.92;;;;;;;21.98;69.18;101295.16;4974393;28;20031;-80
2022/05/16 10:52:59;;;;;;;14.02;4.03;;;;;;;22.19;66.70;101303.22;4974551;28;20118;-82
2022/05/16 10:55:31;;;;;;;9.57;3.65;;;;;;;22.22;65.05;101309.00;4975126;28;20042;-81
2022/05/16 10:58:33;;;;;;;9.10;3.85;;;;;;;22.27;64.03;101300.66;4977352;28;20113;-81
2022/05/16 11:01:07;;;;;;;12.88;3.72;;;;;;;22.29;64.51;101308.63;4975765;28;20031;-80
2022/05/16 11:03:54;;;;;;;9.10;3.72;;;;;;;22.41;63.95;101306.31;4978764;28;20099;-80
2022/05/16 11:06:38;;;;;;;6.93;3.40;;;;;;;22.50;64.43;101313.94;4978282;28;20042;-80
2022/05/16 11:09:11;;;;;;;7.18;3.47;;;;;;;22.55;62.87;101319.38;4978301;28;20090;-80
2022/05/16 11:11:43;;;;;;;16.23;3.78;;;;;;;22.51;62.04;101310.91;4976170;28;20085;-81
2022/05/16 11:14:20;;;;;;;14.20;3.95;;;;;;;22.49;61.91;101324.13;4978701;28;20037;-80
2022/05/16 11:16:50;;;;;;;16.05;4.20;;;;;;;22.40;61.59;101317.63;4978694;28;20030;-82
2022/05/16 11:19:34;;;;;;;15.70;4.73;;;;;;;22.35;61.35;101323.22;4976605;28;20082;-81
2022/05/16 11:22:08;;;;;;;7.15;4.28;;;;;;;22.28;62.64;101321.59;4977753;28;20447;-81
2022/05/16 11:24:49;;;;;;;19.75;5.03;;;;;;;22.26;61.84;101321.06;4977360;28;20496;-81
2022/05/16 11:27:36;;;;;;;12.95;4.72;;;;;;;22.22;62.30;101330.19;4977489;28;20081;-81
2022/05/16 11:30:13;;;;;;;13.27;5.03;;;;;;;22.15;64.15;101326.97;4977808;28;20106;-81
2022/05/16 11:32:48;;;;;;;13.10;5.18;;;;;;;22.02;67.94;101326.53;4976909;28;20027;-80
2022/05/16 11:35:23;;;;;;;13.48;5.40;;;;;;;21.96;67.96;101330.47;4976730;28;20418;-81
2022/05/16 11:37:57;;;;;;;19.48;5.75;;;;;;;21.97;68.21;101334.88;4976137;28;20454;-80
2022/05/16 11:40:51;;;;;;;9.93;4.90;;;;;;;22.03;66.17;101339.22;4977025;28;20035;-81
2022/05/16 11:43:28;;;;;;;12.65;5.38;;;;;;;22.05;67.12;101331.47;4976975;28;20105;-81
2022/05/16 11:46:20;;;;;;;9.27;5.00;;;;;;;22.11;64.84;101338.56;4977265;28;20074;-83
2022/05/16 11:49:13;;;;;;;17.00;5.00;;;;;;;22.11;63.48;101341.34;4978224;28;20030;-82
2022/05/16 11:52:21;;;;;;;10.85;4.60;;;;;;;22.10;63.02;101336.09;4980998;28;20042;-82
2022/05/16 12:00:31;;;;;;;13.82;5.10;;;;;;;21.99;63.42;101342.84;4992586;28;20213;-83
2022/05/16 12:00:50;;;;;;;14.40;6.45;;;;;;;21.88;64.75;101347.63;4981790;28;20049;-80
2022/05/16 12:03:23;;;;;;;15.48;6.05;;;;;;;21.85;66.51;101357.28;4980948;28;20367;-81
2022/05/16 12:05:52;;;;;;;20.27;7.85;;;;;;;21.77;69.47;101363.44;4977535;28;20050;-80